Time;durP1;ratioP1;P1;durP2;ratioP2;P2;SDS_P1;SDS_P2;PMS_P1;PMS_P2;Temp;Humidity;BMP_temperature;BMP_pressure;BME280_temperature;BME280_humidity;BME280_pressure;Samples;Min_cycle;Max_cycle;Signal;HPM_P1;HPM_P2
2022/07/05 00:03:13;;;;;;;4.17;2.92;;;;;;;20.64;71.54;100967.58;5156959;57;1139037;-78
2022/07/05 00:08:19;;;;;;;8.98;2.55;;;;;;;20.66;71.69;100966.91;5101022;57;1136949;-78
2022/07/05 00:13:25;;;;;;;6.75;4.03;;;;;;;20.56;71.24;100956.03;5140041;57;1136937;-79
2022/07/05 00:18:30;;;;;;;5.67;2.95;;;;;;;20.48;71.58;100954.70;5160246;57;1137034;-77
2022/07/05 00:23:36;;;;;;;6.45;2.30;;;;;;;20.52;72.02;100946.13;5160227;57;1136961;-78
2022/07/05 00:28:42;;;;;;;9.10;3.27;;;;;;;20.51;71.88;100945.80;5157521;57;1137005;-79
2022/07/05 00:33:47;;;;;;;3.95;2.62;;;;;;;20.51;72.05;100943.61;5160180;57;1137169;-77
2022/07/05 00:38:53;;;;;;;4.60;2.27;;;;;;;20.19;70.85;100951.22;5160153;57;1137112;-78
2022/07/05 00:44:03;;;;;;;4.65;3.27;;;;;;;20.19;70.85;100951.22;5160162;57;1137187;-80
2022/07/05 00:49:09;;;;;;;6.28;4.12;;;;;;;19.80;71.28;100955.97;5160077;57;1136975;-78
2022/07/05 00:54:15;;;;;;;4.40;3.47;;;;;;;19.43;71.89;100960.94;5172322;56;1136959;-77
2022/07/05 00:59:22;;;;;;;6.87;3.42;;;;;;;19.22;72.83;100958.73;5164895;56;1137453;-79
2022/07/05 01:04:29;;;;;;;4.15;3.25;;;;;;;19.32;74.10;100955.39;5160048;57;1136980;-78
2022/07/05 01:09:36;;;;;;;6.28;3.62;;;;;;;19.51;74.48;100952.94;5160428;56;1136863;-78
2022/07/05 01:14:43;;;;;;;9.60;4.33;;;;;;;19.65;74.81;100951.78;5196877;56;1137019;-78
2022/07/05 01:19:51;;;;;;;9.75;3.95;;;;;;;19.63;74.36;100955.63;5236536;56;1136997;-79
2022/07/05 01:24:57;;;;;;;6.45;3.37;;;;;;;19.62;74.38;100960.66;5221882;56;1136967;-79
2022/07/05 01:30:03;;;;;;;5.53;3.58;;;;;;;19.22;73.57;100964.09;5066597;57;1136931;-79
2022/07/05 01:35:11;;;;;;;4.58;2.82;;;;;;;18.76;74.39;100966.29;5029732;58;1135124;-77
2022/07/05 01:40:18;;;;;;;3.70;3.17;;;;;;;18.55;75.66;100962.63;5063435;58;1135242;-78
2022/07/05 01:50:55;;;;;;;4.20;3.20;;;;;;;18.86;77.49;100962.97;5053834;58;1138968;-79
2022/07/05 01:56:03;;;;;;;7.17;3.12;;;;;;;18.88;76.92;100956.11;4914107;60;1139036;-78
2022/07/05 02:01:10;;;;;;;10.35;3.70;;;;;;;18.89;77.35;100955.11;4993517;59;1139092;-79
2022/07/05 02:06:15;;;;;;;8.03;4.78;;;;;;;18.96;77.76;100954.28;4957056;59;1141157;-78
2022/07/05 02:11:21;;;;;;;13.10;4.83;;;;;;;19.02;77.50;100954.15;5022514;58;1139031;-78
2022/07/05 02:16:29;;;;;;;17.90;5.55;;;;;;;19.09;77.34;100957.87;5037103;58;1141148;-79
2022/07/05 02:21:35;;;;;;;12.85;5.40;;;;;;;19.11;77.28;100953.66;5074729;58;1141142;-79
2022/07/05 02:26:42;;;;;;;17.62;5.30;;;;;;;19.01;76.33;100943.59;5040849;58;1141063;-79
2022/07/05 02:31:49;;;;;;;19.85;5.12;;;;;;;18.86;76.45;100952.75;4993942;58;1141057;-77
2022/07/05 02:36:56;;;;;;;16.25;5.05;;;;;;;18.62;76.75;100946.80;4994262;59;1141181;-78
2022/07/05 02:42:02;;;;;;;7.78;4.72;;;;;;;18.34;77.22;100926.52;4994050;59;1141174;-77
2022/07/05 02:47:09;;;;;;;9.05;4.67;;;;;;;18.34;77.22;100926.52;4994272;59;1139031;-77
2022/07/05 02:52:17;;;;;;;11.80;4.00;;;;;;;18.34;78.02;100940.75;5036333;58;1139598;-78
2022/07/05 02:57:24;;;;;;;6.50;2.87;;;;;;;18.44;78.73;100948.19;5061458;58;1141199;-77
2022/07/05 03:02:32;;;;;;;5.12;2.70;;;;;;;18.35;78.30;100957.16;5078498;58;1139049;-78
2022/07/05 03:07:38;;;;;;;8.83;3.10;;;;;;;18.22;79.13;100954.06;5078606;58;1139412;-78
2022/07/05 03:12:45;;;;;;;5.55;3.00;;;;;;;18.16;79.99;100961.41;5077932;58;1139086;-79
2022/07/05 03:17:51;;;;;;;3.65;3.25;;;;;;;18.26;80.68;100952.27;5077663;58;1139061;-77
2022/07/05 03:22:58;;;;;;;10.63;3.45;;;;;;;18.36;80.95;100958.84;5039500;58;1139020;-76
2022/07/05 03:28:05;;;;;;;9.00;3.70;;;;;;;18.53;81.22;100970.48;5092627;57;1141306;-77
2022/07/05 03:33:13;;;;;;;5.83;3.20;;;;;;;18.61;81.24;100970.08;5120603;57;1139029;-77
2022/07/05 03:38:21;;;;;;;3.95;3.02;;;;;;;18.69;80.91;100979.13;5146635;57;1139005;-77
2022/07/05 03:43:27;;;;;;;10.70;3.55;;;;;;;18.66;80.14;100986.15;5134250;57;1139237;-77
2022/07/05 03:48:34;;;;;;;6.53;3.50;;;;;;;18.62;80.71;100976.28;5114883;57;1141271;-76
2022/07/05 03:53:40;;;;;;;9.58;3.72;;;;;;;18.69;81.28;100971.09;5187602;56;1138960;-77
2022/07/05 03:58:48;;;;;;;9.30;3.95;;;;;;;18.73;81.53;100967.11;5174710;56;1138938;-77
2022/07/05 04:03:54;;;;;;;5.28;3.25;;;;;;;18.78;81.77;100973.67;5033514;58;1139134;-76
2022/07/05 04:09:00;;;;;;;8.40;3.42;;;;;;;18.89;81.67;100981.92;5132230;57;1139275;-77
2022/07/05 04:14:08;;;;;;;7.37;3.55;;;;;;;18.95;81.60;100985.27;5032031;58;1139267;-77
2022/07/05 04:19:15;;;;;;;13.78;5.10;;;;;;;18.96;81.53;100987.80;5111187;57;1136947;-77
2022/07/05 04:24:22;;;;;;;5.90;3.12;;;;;;;18.95;81.56;100987.95;5130448;57;1139062;-76
2022/07/05 04:29:28;;;;;;;15.60;6.72;;;;;;;18.95;82.18;100990.63;5101454;57;1137295;-77
2022/07/05 04:34:35;;;;;;;7.28;4.97;;;;;;;18.79;81.57;100991.94;5117365;57;1139276;-77
2022/07/05 04:39:41;;;;;;;16.10;5.22;;;;;;;18.56;82.06;101001.82;5008993;58;1137031;-77
2022/07/05 04:44:47;;;;;;;13.90;5.45;;;;;;;18.46;83.30;101007.80;5228907;56;1139017;-76
2022/07/05 04:49:57;;;;;;;14.87;4.20;;;;;;;18.38;84.17;101007.73;5179421;56;1139143;-77
2022/07/05 04:55:04;;;;;;;14.35;4.55;;;;;;;18.52;85.00;101012.50;5175678;56;1139023;-77
2022/07/05 05:00:13;;;;;;;14.10;6.03;;;;;;;18.70;85.82;101017.83;5006339;58;1139225;-77
2022/07/05 05:05:20;;;;;;;6.87;4.17;;;;;;;18.82;85.83;101023.75;5155641;56;1139046;-76
2022/07/05 05:10:25;;;;;;;13.48;4.65;;;;;;;19.01;86.87;101019.98;5190733;56;1136955;-76
2022/07/05 05:15:31;;;;;;;16.77;5.25;;;;;;;19.19;87.25;101016.70;5135560;56;1139062;-77
2022/07/05 05:20:36;;;;;;;19.52;4.87;;;;;;;19.38;87.22;101022.30;5141872;57;1139065;-77
2022/07/05 05:25:42;;;;;;;11.30;4.50;;;;;;;19.58;87.28;101012.47;5070399;57;1139067;-76
2022/07/05 05:30:48;;;;;;;14.42;4.14;;;;;;;19.79;87.48;101025.42;5043909;58;1139141;-76
2022/07/05 05:35:54;;;;;;;14.85;3.70;;;;;;;19.98;87.34;101022.42;5053033;57;1138993;-76
2022/07/05 05:41:00;;;;;;;6.72;2.70;;;;;;;20.22;86.96;101020.21;5110313;57;1136984;-77
2022/07/05 05:46:05;;;;;;;9.13;3.25;;;;;;;20.49;86.26;101023.05;5127642;57;1134715;-76
2022/07/05 05:51:11;;;;;;;3.62;3.10;;;;;;;20.65;83.37;101024.36;5128587;56;1139044;-77
2022/07/05 05:56:20;;;;;;;5.62;2.10;;;;;;;20.83;83.74;101030.03;5164981;56;1139168;-77
2022/07/05 06:01:29;;;;;;;1.70;1.60;;;;;;;20.96;81.29;101043.76;5084212;57;1139047;-78
2022/07/05 06:06:42;;;;;;;4.50;2.15;;;;;;;21.10;79.07;101038.16;5082784;57;1138957;-77
2022/07/05 06:11:52;;;;;;;7.12;2.02;;;;;;;21.11;73.70;101048.74;5069141;57;1139002;-77
2022/07/05 06:16:58;;;;;;;5.47;1.70;;;;;;;21.21;77.07;101044.55;5101015;57;1139023;-78
2022/07/05 06:22:06;;;;;;;4.15;1.80;;;;;;;21.37;74.90;101057.92;5084659;57;1139243;-78
2022/07/05 06:27:12;;;;;;;3.85;1.72;;;;;;;21.59;76.45;101056.27;5100549;56;1139220;-78
2022/07/05 06:32:18;;;;;;;7.75;1.50;;;;;;;21.80;76.29;101052.45;5090224;57;1139269;-78
2022/07/05 06:37:23;;;;;;;5.85;1.50;;;;;;;21.99;74.75;101054.70;5069078;57;1139015;-77
2022/07/05 06:42:29;;;;;;;8.90;1.80;;;;;;;22.06;74.03;101063.72;5036475;58;1139119;-78
2022/07/05 06:47:36;;;;;;;7.17;1.60;;;;;;;22.22;73.42;101067.30;5033192;58;1138982;-76
2022/07/05 06:52:41;;;;;;;1.90;1.57;;;;;;;22.38;73.00;101059.91;5037331;58;1139051;-76
2022/07/05 06:57:47;;;;;;;1.95;1.35;;;;;;;22.57;74.38;101043.73;5191650;56;1139073;-77
2022/07/05 07:02:53;;;;;;;4.85;1.47;;;;;;;22.82;73.17;101054.27;5214581;56;1139262;-77
2022/07/05 07:13:22;;;;;;;4.45;1.40;;;;;;;23.18;70.66;101046.27;5132582;56;1139132;-77
2022/07/05 07:18:28;;;;;;;4.65;1.65;;;;;;;23.20;67.74;101043.70;4989323;58;1139170;-76
2022/07/05 07:23:35;;;;;;;4.35;1.60;;;;;;;23.36;67.55;101042.14;5089204;57;1138960;-76
2022/07/05 07:28:41;;;;;;;3.35;1.10;;;;;;;23.56;66.17;101046.94;5140652;57;1139029;-77
2022/07/05 07:33:46;;;;;;;4.03;1.20;;;;;;;23.80;65.88;101041.19;5136625;57;1139039;-76
2022/07/05 07:38:52;;;;;;;2.05;1.25;;;;;;;23.90;63.11;101043.56;5140923;57;1139017;-78
2022/07/05 07:43:59;;;;;;;0.82;0.60;;;;;;;23.77;61.67;101034.81;5124430;57;1139007;-77
2022/07/05 07:49:05;;;;;;;2.37;0.70;;;;;;;23.81;60.53;101040.17;5107146;57;1139092;-78
2022/07/05 07:54:11;;;;;;;0.90;0.90;;;;;;;23.99;59.92;101032.42;5098707;57;1139339;-77
2022/07/05 07:59:17;;;;;;;6.72;1.42;;;;;;;24.13;58.36;101032.89;5092939;57;1139070;-78
2022/07/05 08:04:23;;;;;;;2.17;1.40;;;;;;;24.01;58.28;101024.95;5087332;57;1139438;-77
2022/07/05 08:09:29;;;;;;;5.83;0.88;;;;;;;23.97;57.33;101028.27;5030381;57;1139104;-77
2022/07/05 08:14:35;;;;;;;1.95;1.00;;;;;;;24.25;58.14;101024.27;5046520;58;1139193;-75
2022/07/05 08:25:04;;;;;;;0.60;0.60;;;;;;;24.30;55.39;101027.20;5046114;57;1137054;-78
2022/07/05 08:30:11;;;;;;;3.10;1.00;;;;;;;24.43;54.17;101032.73;5036752;57;1137164;-78
2022/07/05 08:35:17;;;;;;;1.52;0.70;;;;;;;24.22;53.06;101036.27;5080243;57;1136984;-77
2022/07/05 08:40:26;;;;;;;3.30;1.20;;;;;;;24.00;53.82;101040.02;5064443;57;1136565;-78
2022/07/05 08:45:33;;;;;;;2.40;0.80;;;;;;;23.90;55.07;101041.70;5074462;57;1136972;-77
2022/07/05 08:50:42;;;;;;;2.60;0.98;;;;;;;23.82;55.99;101039.14;5117797;57;1137251;-78
2022/07/05 08:55:48;;;;;;;1.20;0.90;;;;;;;23.75;55.00;101042.27;5069446;57;1137012;-78
2022/07/05 09:00:54;;;;;;;7.70;0.78;;;;;;;23.60;55.28;101050.43;5113091;57;1137045;-79
2022/07/05 09:06:03;;;;;;;3.30;0.80;;;;;;;23.78;54.26;101041.90;5054291;58;1137033;-78
2022/07/05 09:11:11;;;;;;;0.98;0.85;;;;;;;23.84;55.23;101031.14;5097932;57;1137047;-77
2022/07/05 09:16:18;;;;;;;0.70;0.70;;;;;;;24.31;55.71;101024.81;5182961;57;1136954;-77
2022/07/05 09:21:26;;;;;;;2.20;0.90;;;;;;;24.62;53.20;101024.41;5055946;57;1137247;-77
2022/07/05 09:26:49;;;;;;;3.20;0.88;;;;;;;25.01;54.30;101023.84;5105289;57;1136989;-79
2022/07/05 09:31:55;;;;;;;3.83;0.90;;;;;;;25.46;53.90;101019.13;5128410;56;1139281;-78
2022/07/05 09:37:04;;;;;;;0.83;0.83;;;;;;;25.85;52.32;101010.26;5237486;56;1139046;-78
2022/07/05 09:42:23;;;;;;;1.70;0.97;;;;;;;25.86;46.95;101021.41;5237194;56;1139313;-77
2022/07/05 09:47:30;;;;;;;1.77;0.80;;;;;;;25.78;44.78;101026.21;5198217;56;1139115;-77
2022/07/05 09:52:40;;;;;;;2.58;1.77;;;;;;;25.89;44.64;101018.81;5237306;56;1139012;-79
2022/07/05 09:57:55;;;;;;;3.12;0.90;;;;;;;25.81;45.23;101024.45;5241863;55;1139071;-77
2022/07/05 10:03:04;;;;;;;0.53;0.47;;;;;;;25.78;45.59;101024.34;5297334;55;1139588;-79
2022/07/05 10:08:07;;;;;;;1.95;0.80;;;;;;;25.64;46.61;101021.81;5297718;55;1139174;-78
2022/07/05 10:13:13;;;;;;;0.98;0.75;;;;;;;25.59;48.52;101027.28;5279454;56;1139167;-79
2022/07/05 10:18:31;;;;;;;1.30;0.70;;;;;;;25.41;49.10;101025.66;5240668;56;1139107;-78
2022/07/05 10:23:33;;;;;;;4.60;1.10;;;;;;;25.24;47.84;101025.19;5240416;56;1139125;-77
2022/07/05 10:28:44;;;;;;;4.78;0.60;;;;;;;25.02;48.91;101027.71;5240700;56;1139079;-80
2022/07/05 10:33:51;;;;;;;1.80;0.90;;;;;;;25.00;50.52;101027.07;5239381;56;1139176;-78
2022/07/05 10:38:57;;;;;;;10.05;1.02;;;;;;;24.95;49.38;101029.53;5171774;56;1139359;-79
2022/07/05 10:44:03;;;;;;;2.10;0.75;;;;;;;25.14;50.50;101026.61;5154094;57;1141051;-80
2022/07/05 10:49:15;;;;;;;2.75;1.10;;;;;;;25.55;47.25;101017.05;5120303;56;1139063;-78
2022/07/05 10:54:21;;;;;;;6.22;2.12;;;;;;;25.90;45.36;101009.64;5212369;55;1139119;-78
2022/07/05 10:59:26;;;;;;;12.73;5.97;;;;;;;26.11;45.21;100999.13;5205639;57;1139164;-78
2022/07/05 11:04:34;;;;;;;3.70;1.20;;;;;;;26.34;45.75;101003.62;5205719;57;1141407;-80
2022/07/05 11:09:44;;;;;;;0.85;0.70;;;;;;;26.61;45.41;100988.12;5205767;57;1138956;-78
2022/07/05 11:14:50;;;;;;;1.12;1.02;;;;;;;26.71;45.42;100984.98;5180628;56;1139019;-79
2022/07/05 11:20:14;;;;;;;18.45;0.82;;;;;;;26.70;42.64;100977.36;5205648;56;1139079;-77
2022/07/05 11:25:20;;;;;;;2.72;1.02;;;;;;;26.65;43.47;100987.18;5129285;57;1141131;-78
2022/07/05 11:30:26;;;;;;;1.82;0.98;;;;;;;26.47;42.63;100972.92;5120056;57;1139098;-78
2022/07/05 11:35:38;;;;;;;0.90;0.80;;;;;;;26.40;44.94;100970.77;5120321;57;1139084;-78
2022/07/05 11:40:44;;;;;;;7.00;6.03;;;;;;;26.48;46.68;100967.28;5115099;57;1137508;-77
2022/07/05 11:45:57;;;;;;;3.85;2.62;;;;;;;26.56;46.62;100963.00;5120442;57;1136801;-80
2022/07/05 11:51:15;;;;;;;4.95;1.30;;;;;;;26.49;44.74;100959.98;5120191;57;1137117;-77
2022/07/05 11:56:20;;;;;;;0.90;0.90;;;;;;;26.53;44.82;100955.81;5091088;57;1137142;-77
2022/07/05 12:01:26;;;;;;;2.20;0.70;;;;;;;26.60;45.13;100957.96;5155634;57;1136998;-78
2022/07/05 12:06:32;;;;;;;3.27;0.78;;;;;;;26.76;44.44;100951.23;5155583;57;1137204;-78
2022/07/05 12:17:17;;;;;;;1.00;0.82;;;;;;;27.17;46.39;100950.89;5135334;57;1137002;-79
2022/07/05 12:22:42;;;;;;;;;;;;;;;27.22;45.56;100936.11;5165657;57;1135086;-77
2022/07/05 12:27:51;;;;;;;6.83;0.90;;;;;;;27.37;45.16;100938.52;5159066;57;976847;-73
2022/07/05 12:33:12;;;;;;;18.17;1.60;;;;;;;27.38;45.54;100936.95;5158466;57;1136960;-77
2022/07/05 12:38:20;;;;;;;3.15;1.30;;;;;;;27.38;46.17;100927.97;5154928;56;1140591;-77
2022/07/05 12:43:27;;;;;;;6.05;1.05;;;;;;;27.24;44.13;100933.48;5128994;57;1138959;-80
2022/07/05 12:48:40;;;;;;;5.25;0.90;;;;;;;27.13;44.72;100935.55;5163562;57;1139329;-77
2022/07/05 12:59:13;;;;;;;1.85;0.80;;;;;;;26.91;42.39;100929.55;5126535;57;1139024;-77
2022/07/05 13:04:20;;;;;;;23.52;1.55;;;;;;;26.70;43.25;100932.59;5165208;56;1138955;-76
2022/07/05 13:09:35;;;;;;;1.50;1.00;;;;;;;26.73;44.80;100928.09;5202385;56;1141434;-79
2022/07/05 13:14:49;;;;;;;1.30;1.15;;;;;;;26.74;44.94;100938.39;5241486;56;1138954;-79
2022/07/05 13:19:54;;;;;;;3.22;0.88;;;;;;;26.72;45.30;100925.59;5241811;56;1139137;-79
2022/07/05 13:25:00;;;;;;;3.62;1.35;;;;;;;26.65;44.57;100920.17;5298116;55;1139042;-76
2022/07/05 13:30:07;;;;;;;5.28;1.12;;;;;;;26.89;44.85;100914.00;5301710;55;1139001;-79
2022/07/05 13:35:13;;;;;;;5.70;0.80;;;;;;;27.16;44.20;100911.20;5277792;55;1139031;-78
2022/07/05 13:40:19;;;;;;;3.15;0.80;;;;;;;27.53;44.35;100903.52;5269785;55;1138983;-74
2022/07/05 13:45:25;;;;;;;3.37;0.75;;;;;;;27.74;42.52;100902.86;5258605;55;1138484;-78
2022/07/05 13:50:31;;;;;;;5.20;1.52;;;;;;;27.79;40.85;100891.64;5272152;55;1139321;-81
2022/07/05 13:55:37;;;;;;;7.65;0.90;;;;;;;27.75;39.42;100897.21;5308726;55;1139002;-78
2022/07/05 14:00:43;;;;;;;2.98;0.70;;;;;;;27.60;40.51;100886.67;5330411;55;1139000;-76
2022/07/05 14:05:49;;;;;;;6.83;0.98;;;;;;;27.59;41.86;100892.33;5265266;55;1139270;-79
2022/07/05 14:10:57;;;;;;;2.65;0.90;;;;;;;27.42;42.43;100893.36;5265097;55;1138996;-74
2022/07/05 14:16:02;;;;;;;3.47;1.35;;;;;;;27.15;41.28;100896.79;5272663;55;1139594;-83
2022/07/05 14:21:14;;;;;;;3.58;1.90;;;;;;;26.96;42.51;100899.09;5222292;56;1139177;-73
2022/07/05 14:26:17;;;;;;;2.92;1.20;;;;;;;26.96;43.65;100903.16;5221133;56;1136968;-74
2022/07/05 14:31:23;;;;;;;2.05;0.98;;;;;;;26.82;42.68;100892.86;5241078;56;1136907;-78
2022/07/05 14:36:28;;;;;;;2.10;0.90;;;;;;;26.99;44.37;100895.11;5232283;56;1136938;-75
2022/07/05 14:41:34;;;;;;;0.90;0.72;;;;;;;27.18;43.55;100895.53;5154588;56;1136948;-75
2022/07/05 14:46:39;;;;;;;1.77;1.20;;;;;;;27.24;42.64;100890.03;5165821;56;1136824;-77
2022/07/05 14:51:45;;;;;;;0.93;0.90;;;;;;;27.34;42.11;100892.29;5241370;56;1137229;-77
2022/07/05 14:56:51;;;;;;;2.02;0.90;;;;;;;27.23;42.33;100891.08;5027496;57;1136986;-75
2022/07/05 15:01:56;;;;;;;1.70;1.12;;;;;;;27.17;41.67;100894.70;4993160;58;1137014;-80
2022/07/05 15:07:02;;;;;;;1.70;0.95;;;;;;;27.10;42.48;100886.27;5063236;57;1137312;-77
2022/07/05 15:12:09;;;;;;;1.62;1.17;;;;;;;27.02;41.88;100886.54;5205689;57;1136849;-79
2022/07/05 15:17:15;;;;;;;7.62;1.30;;;;;;;26.98;42.89;100880.70;5182261;56;1137178;-77
2022/07/05 15:22:21;;;;;;;4.28;0.90;;;;;;;26.95;42.12;100892.83;5200758;56;1137074;-78
2022/07/05 15:27:31;;;;;;;1.20;1.10;;;;;;;27.03;42.62;100886.84;5206859;56;1137008;-79
2022/07/05 15:32:34;;;;;;;3.22;0.95;;;;;;;26.98;43.09;100882.06;5202744;56;1137059;-79
2022/07/05 15:37:40;;;;;;;1.10;0.70;;;;;;;26.93;42.92;100894.92;5193808;55;1137236;-78
2022/07/05 15:42:45;;;;;;;1.05;0.95;;;;;;;26.87;43.46;100886.80;5239761;55;1137111;-78
2022/07/05 15:47:51;;;;;;;4.08;1.27;;;;;;;26.83;43.67;100885.03;5163607;56;1137009;-78
2022/07/05 15:52:57;;;;;;;1.70;1.40;;;;;;;26.79;43.35;100885.15;5169462;56;1136905;-80
2022/07/05 15:58:02;;;;;;;2.05;0.80;;;;;;;26.71;44.09;100887.30;5162169;56;1135130;-80
2022/07/05 16:03:08;;;;;;;1.22;0.90;;;;;;;26.66;43.39;100889.81;5154474;56;1134794;-78
2022/07/05 16:08:16;;;;;;;4.40;1.25;;;;;;;26.54;44.04;100884.23;5180106;56;21116;-80
2022/07/05 16:13:21;;;;;;;2.63;1.07;;;;;;;26.60;45.16;100887.42;5196305;55;1134858;-80
2022/07/05 16:18:27;;;;;;;6.03;1.53;;;;;;;26.71;45.73;100892.20;5195167;56;1138977;-78
2022/07/05 16:23:34;;;;;;;2.03;1.07;;;;;;;26.80;46.21;100884.10;5196736;55;1139064;-80
2022/07/05 16:28:40;;;;;;;8.65;7.95;;;;;;;27.02;47.38;100890.09;5195015;56;1138987;-80
2022/07/05 16:33:50;;;;;;;4.55;2.70;;;;;;;27.02;46.54;100886.54;5194838;56;1139089;-80
2022/07/05 16:38:56;;;;;;;5.58;2.42;;;;;;;27.03;45.90;100885.49;5213384;56;1139234;-78
2022/07/05 16:44:02;;;;;;;7.50;5.03;;;;;;;26.93;45.68;100894.92;5203969;56;1139121;-78
2022/07/05 16:49:08;;;;;;;2.42;1.42;;;;;;;26.87;46.19;100894.42;5191723;56;1139039;-80
2022/07/05 16:54:14;;;;;;;13.60;8.80;;;;;;;26.79;45.90;100894.65;5245544;56;1139614;-78
2022/07/05 16:59:19;;;;;;;11.73;10.58;;;;;;;26.72;45.71;100888.95;5163451;56;1141303;-78
2022/07/05 17:04:25;;;;;;;27.17;21.50;;;;;;;26.62;45.80;100882.09;5163732;56;1143339;-78
2022/07/05 17:09:31;;;;;;;13.58;11.03;;;;;;;26.50;44.95;100880.27;5163255;56;1143201;-78
2022/07/05 17:14:37;;;;;;;32.33;20.27;;;;;;;26.43;46.13;100890.33;5163446;56;1143225;-78
2022/07/05 17:19:43;;;;;;;15.13;6.37;;;;;;;26.27;45.84;100895.14;5163387;56;1143304;-77
2022/07/05 17:24:49;;;;;;;22.10;10.43;;;;;;;26.18;45.68;100905.88;5199039;56;1141230;-79
2022/07/05 17:29:54;;;;;;;8.13;2.40;;;;;;;26.16;45.84;100904.42;5163350;57;1143459;-80
2022/07/05 17:35:00;;;;;;;4.70;1.50;;;;;;;26.04;45.99;100903.41;5163521;56;1139052;-79
2022/07/05 17:40:07;;;;;;;3.65;1.77;;;;;;;25.92;46.09;100897.80;5163396;56;1138998;-77
2022/07/05 17:45:13;;;;;;;12.85;5.87;;;;;;;25.81;46.07;100906.05;5179653;56;1139067;-79
2022/07/05 17:50:20;;;;;;;22.58;18.35;;;;;;;25.79;46.33;100913.55;5169313;56;1141088;-79
2022/07/05 17:55:26;;;;;;;9.65;3.85;;;;;;;25.75;46.39;100918.23;5196045;56;1143256;-78
2022/07/05 18:00:35;;;;;;;5.42;2.08;;;;;;;25.75;46.64;100915.52;5164303;56;1139013;-79
2022/07/05 18:05:41;;;;;;;1.72;1.62;;;;;;;25.73;46.64;100920.31;5245737;55;1139047;-79
2022/07/05 18:10:47;;;;;;;4.00;1.67;;;;;;;25.73;46.81;100927.09;5269777;55;1139045;-78
2022/07/05 18:15:54;;;;;;;7.80;2.80;;;;;;;25.59;46.80;100922.98;5221098;56;1139046;-78
2022/07/05 18:21:00;;;;;;;7.15;3.17;;;;;;;25.57;47.41;100921.00;5256367;55;1139051;-79
2022/07/05 18:26:06;;;;;;;5.87;3.20;;;;;;;25.55;47.55;100922.25;5234210;55;1139138;-77
2022/07/05 18:31:14;;;;;;;4.22;2.65;;;;;;;25.46;47.82;100920.79;5253817;55;1139059;-78
2022/07/05 18:36:19;;;;;;;50.83;4.35;;;;;;;25.41;48.26;100926.81;5284460;55;1139309;-78
2022/07/05 18:41:25;;;;;;;5.92;1.90;;;;;;;25.40;48.54;100930.56;5279434;55;1141210;-80
2022/07/05 18:46:31;;;;;;;15.20;1.92;;;;;;;25.28;48.62;100925.96;5249138;55;1139209;-78
2022/07/05 18:51:37;;;;;;;2.02;1.85;;;;;;;25.20;49.01;100925.65;5209442;56;1141386;-78
2022/07/05 18:56:43;;;;;;;7.58;1.70;;;;;;;25.10;49.56;100936.01;5238995;55;1139079;-78
2022/07/05 19:01:51;;;;;;;2.92;2.55;;;;;;;25.00;49.73;100939.63;5292733;55;1139072;-78
2022/07/05 19:17:45;;;;;;;14.58;1.80;;;;;;;24.65;50.78;100942.88;5227320;55;1137021;-80
2022/07/05 19:22:52;;;;;;;6.37;2.20;;;;;;;24.65;50.72;100949.13;5152599;56;1139324;-78
2022/07/05 19:27:58;;;;;;;3.60;1.62;;;;;;;24.63;50.85;100945.78;5152964;56;1137042;-78
2022/07/05 19:33:04;;;;;;;9.53;2.40;;;;;;;24.47;50.79;100942.05;5153057;56;1137211;-80
2022/07/05 19:38:11;;;;;;;7.10;2.75;;;;;;;24.36;51.01;100952.91;5135366;57;1136529;-80
2022/07/05 19:43:18;;;;;;;6.25;3.50;;;;;;;24.37;51.40;100961.34;5153263;56;1136978;-80
2022/07/05 19:48:24;;;;;;;12.53;5.42;;;;;;;24.38;51.26;100963.02;5165375;56;1137080;-78
2022/07/05 19:53:30;;;;;;;19.52;6.03;;;;;;;24.37;51.50;100962.70;5200506;55;1139129;-77
2022/07/05 19:58:36;;;;;;;21.57;5.95;;;;;;;24.26;51.79;100963.77;5165981;56;1139151;-79
2022/07/05 20:03:41;;;;;;;31.02;8.55;;;;;;;24.11;51.91;100970.59;5132217;57;1139094;-81
2022/07/05 20:08:47;;;;;;;46.28;13.90;;;;;;;23.91;52.18;100960.97;5154676;57;1138942;-78
2022/07/05 20:13:55;;;;;;;25.90;8.75;;;;;;;23.75;53.01;100966.64;5280427;55;1139323;-77
2022/07/05 20:19:01;;;;;;;13.13;4.95;;;;;;;23.58;54.19;100974.17;5276150;55;1136972;-79
2022/07/05 20:24:07;;;;;;;5.45;3.10;;;;;;;23.58;54.19;100974.17;5233731;55;1140932;-77
2022/07/05 20:29:12;;;;;;;2.54;2.26;;;;;;;23.47;54.25;100974.14;5266857;55;1139057;-78
2022/07/05 20:34:18;;;;;;;4.43;2.70;;;;;;;23.43;54.49;100979.59;5261353;55;1138983;-77
2022/07/05 20:39:24;;;;;;;17.50;5.87;;;;;;;23.29;54.12;100982.34;5255489;55;1138978;-78
2022/07/05 20:44:29;;;;;;;9.40;5.03;;;;;;;23.15;54.49;100987.59;5071136;57;1141253;-78
2022/07/05 20:49:35;;;;;;;9.10;3.90;;;;;;;23.10;54.67;100975.68;5250651;55;1139014;-78
2022/07/05 20:54:41;;;;;;;9.95;4.20;;;;;;;23.09;54.96;100980.23;5203430;55;1139020;-76
2022/07/05 20:59:47;;;;;;;9.30;3.95;;;;;;;22.99;54.87;100974.83;5142513;57;1139123;-77
2022/07/05 21:04:52;;;;;;;2.70;2.20;;;;;;;22.82;54.87;100970.66;5077755;57;1139032;-76
2022/07/05 21:09:58;;;;;;;3.95;1.98;;;;;;;22.70;55.26;100971.11;5078412;57;1139161;-75
2022/07/05 21:15:04;;;;;;;8.48;2.08;;;;;;;22.61;55.50;100971.41;5142203;57;1139067;-76
2022/07/05 21:20:10;;;;;;;2.67;2.25;;;;;;;22.58;55.77;100969.08;5041806;58;1139003;-78
2022/07/05 21:25:16;;;;;;;3.17;2.08;;;;;;;22.47;55.95;100967.66;5060619;57;1138965;-75
2022/07/05 21:30:22;;;;;;;4.80;1.92;;;;;;;22.41;56.09;100971.11;5043625;57;1139034;-81
2022/07/05 21:35:27;;;;;;;10.25;1.92;;;;;;;22.21;55.76;100973.50;5104578;56;1139248;-74
2022/07/05 21:40:33;;;;;;;5.50;2.47;;;;;;;22.08;56.47;100975.48;5112920;57;1141154;-79
2022/07/05 21:45:39;;;;;;;5.90;2.87;;;;;;;22.04;56.79;100978.71;5099535;57;1138994;-80
2022/07/05 21:50:45;;;;;;;4.67;3.00;;;;;;;22.00;57.00;100985.47;5200614;56;1139255;-75
2022/07/05 21:55:51;;;;;;;7.35;2.90;;;;;;;21.88;57.15;100992.28;5159425;56;1139112;-76
2022/07/05 22:06:22;;;;;;;4.78;1.70;;;;;;;21.60;57.61;100990.66;5017946;58;1139254;-78
2022/07/05 22:11:37;;;;;;;9.15;2.50;;;;;;;21.42;57.97;100994.97;5123723;57;1139033;-77
2022/07/05 22:16:43;;;;;;;6.40;1.92;;;;;;;21.28;58.14;101001.11;5159851;57;1139031;-79
2022/07/05 22:21:49;;;;;;;3.42;2.12;;;;;;;20.98;58.48;100998.20;5159627;57;1138954;-78
2022/07/05 22:26:55;;;;;;;5.03;2.27;;;;;;;20.83;59.28;101003.98;5204913;57;1139050;-77
2022/07/05 22:32:01;;;;;;;2.40;2.20;;;;;;;20.70;59.63;101003.70;5208427;56;1138960;-73
2022/07/05 22:37:06;;;;;;;3.08;1.90;;;;;;;20.66;60.46;100995.13;5266938;56;1139004;-77
2022/07/05 22:42:12;;;;;;;3.30;1.85;;;;;;;20.63;60.66;101001.34;5205055;57;1139031;-76
2022/07/05 22:47:18;;;;;;;1.75;1.65;;;;;;;20.44;60.87;101003.94;5205205;56;1139132;-81
2022/07/05 22:52:24;;;;;;;3.95;2.30;;;;;;;20.33;61.64;100997.02;5205885;57;1139097;-75
2022/07/05 22:57:29;;;;;;;3.10;2.00;;;;;;;20.27;62.08;100998.22;5232161;56;1138923;-72
2022/07/05 23:02:35;;;;;;;8.45;1.72;;;;;;;20.38;62.45;100993.87;5239704;55;1139053;-75
2022/07/05 23:07:41;;;;;;;2.45;2.20;;;;;;;20.42;62.48;100989.84;5239286;55;1139238;-80
2022/07/05 23:12:46;;;;;;;5.50;2.02;;;;;;;20.44;62.50;100995.04;5211671;56;1139284;-77
2022/07/05 23:17:52;;;;;;;5.15;1.92;;;;;;;20.42;62.71;100983.12;5194422;57;1139011;-75
2022/07/05 23:22:58;;;;;;;3.40;1.80;;;;;;;20.36;62.78;100987.82;5177568;57;1139048;-78
2022/07/05 23:28:03;;;;;;;5.15;2.20;;;;;;;20.25;62.64;100986.80;5153395;56;1137066;-75
2022/07/05 23:33:09;;;;;;;4.78;1.82;;;;;;;20.03;63.00;100986.98;5153902;56;1137161;-78
2022/07/05 23:38:16;;;;;;;6.60;2.17;;;;;;;19.92;63.62;100990.02;5163876;57;1136971;-79
2022/07/05 23:43:22;;;;;;;3.67;2.35;;;;;;;19.84;63.73;100991.38;5164075;56;1136937;-74
2022/07/05 23:48:28;;;;;;;2.87;2.27;;;;;;;19.52;63.92;100992.19;5163857;56;1136998;-77
2022/07/05 23:53:34;;;;;;;4.17;2.47;;;;;;;19.41;65.07;100991.94;5163688;56;1136882;-79